sensor_id;sensor_type;location;lat;lon;timestamp;P1;durP1;ratioP1;P2;durP2;ratioP2
28481;SDS011;15703;49.588;6.260;2023-03-29T00:00:04;4.57;;;4.00;;
28481;SDS011;15703;49.588;6.260;2023-03-29T00:02:34;5.37;;;3.33;;
28481;SDS011;15703;49.588;6.260;2023-03-29T00:04:57;3.90;;;3.60;;
28481;SDS011;15703;49.588;6.260;2023-03-29T00:07:24;4.90;;;3.60;;
28481;SDS011;15703;49.588;6.260;2023-03-29T00:09:46;4.40;;;4.10;;
28481;SDS011;15703;49.588;6.260;2023-03-29T00:12:08;4.03;;;3.63;;
28481;SDS011;15703;49.588;6.260;2023-03-29T00:14:31;4.30;;;3.60;;
28481;SDS011;15703;49.588;6.260;2023-03-29T00:16:54;3.83;;;3.23;;
28481;SDS011;15703;49.588;6.260;2023-03-29T00:19:16;6.20;;;3.77;;
28481;SDS011;15703;49.588;6.260;2023-03-29T00:21:38;6.80;;;3.47;;
28481;SDS011;15703;49.588;6.260;2023-03-29T00:24:01;4.03;;;3.53;;
28481;SDS011;15703;49.588;6.260;2023-03-29T00:26:23;4.63;;;3.57;;
28481;SDS011;15703;49.588;6.260;2023-03-29T00:28:45;4.17;;;3.80;;
28481;SDS011;15703;49.588;6.260;2023-03-29T00:31:09;4.70;;;3.40;;
28481;SDS011;15703;49.588;6.260;2023-03-29T00:33:31;3.30;;;3.10;;
28481;SDS011;15703;49.588;6.260;2023-03-29T00:35:54;4.17;;;3.87;;
28481;SDS011;15703;49.588;6.260;2023-03-29T00:38:16;3.77;;;3.47;;
28481;SDS011;15703;49.588;6.260;2023-03-29T00:40:40;4.10;;;3.70;;
28481;SDS011;15703;49.588;6.260;2023-03-29T00:43:04;4.00;;;3.70;;
28481;SDS011;15703;49.588;6.260;2023-03-29T00:45:26;4.73;;;3.80;;
28481;SDS011;15703;49.588;6.260;2023-03-29T00:47:55;6.07;;;3.80;;
28481;SDS011;15703;49.588;6.260;2023-03-29T00:50:21;4.83;;;3.70;;
28481;SDS011;15703;49.588;6.260;2023-03-29T00:52:51;4.20;;;3.73;;
28481;SDS011;15703;49.588;6.260;2023-03-29T00:55:16;4.73;;;4.33;;
28481;SDS011;15703;49.588;6.260;2023-03-29T00:57:41;4.40;;;4.00;;
28481;SDS011;15703;49.588;6.260;2023-03-29T01:00:06;5.00;;;4.03;;
28481;SDS011;15703;49.588;6.260;2023-03-29T01:02:30;4.30;;;4.00;;
28481;SDS011;15703;49.588;6.260;2023-03-29T01:04:57;4.37;;;3.93;;
28481;SDS011;15703;49.588;6.260;2023-03-29T01:07:27;4.73;;;4.33;;
28481;SDS011;15703;49.588;6.260;2023-03-29T01:09:54;3.77;;;3.40;;
28481;SDS011;15703;49.588;6.260;2023-03-29T01:12:20;4.00;;;3.60;;
28481;SDS011;15703;49.588;6.260;2023-03-29T01:14:53;4.00;;;3.70;;
28481;SDS011;15703;49.588;6.260;2023-03-29T01:17:17;4.00;;;3.70;;
28481;SDS011;15703;49.588;6.260;2023-03-29T01:19:46;4.03;;;3.63;;
28481;SDS011;15703;49.588;6.260;2023-03-29T01:29:54;4.10;;;3.80;;
28481;SDS011;15703;49.588;6.260;2023-03-29T01:35:14;4.93;;;4.10;;
28481;SDS011;15703;49.588;6.260;2023-03-29T01:37:50;6.40;;;4.67;;
28481;SDS011;15703;49.588;6.260;2023-03-29T01:40:16;7.87;;;4.13;;
28481;SDS011;15703;49.588;6.260;2023-03-29T01:42:47;8.10;;;4.43;;
28481;SDS011;15703;49.588;6.260;2023-03-29T01:47:53;4.73;;;3.90;;
28481;SDS011;15703;49.588;6.260;2023-03-29T01:50:17;5.80;;;4.33;;
28481;SDS011;15703;49.588;6.260;2023-03-29T01:52:43;3.93;;;3.63;;
28481;SDS011;15703;49.588;6.260;2023-03-29T01:55:09;4.23;;;3.90;;
28481;SDS011;15703;49.588;6.260;2023-03-29T01:57:35;4.63;;;4.03;;
28481;SDS011;15703;49.588;6.260;2023-03-29T01:59:59;4.87;;;4.23;;
28481;SDS011;15703;49.588;6.260;2023-03-29T02:02:35;6.47;;;4.20;;
28481;SDS011;15703;49.588;6.260;2023-03-29T02:04:59;3.93;;;3.63;;
28481;SDS011;15703;49.588;6.260;2023-03-29T02:07:23;4.17;;;3.73;;
28481;SDS011;15703;49.588;6.260;2023-03-29T02:09:47;5.20;;;3.63;;
28481;SDS011;15703;49.588;6.260;2023-03-29T02:12:10;3.80;;;3.47;;
28481;SDS011;15703;49.588;6.260;2023-03-29T02:14:33;5.77;;;4.00;;
28481;SDS011;15703;49.588;6.260;2023-03-29T02:16:55;4.30;;;3.90;;
28481;SDS011;15703;49.588;6.260;2023-03-29T02:19:18;4.60;;;4.20;;
28481;SDS011;15703;49.588;6.260;2023-03-29T02:21:44;5.00;;;4.50;;
28481;SDS011;15703;49.588;6.260;2023-03-29T02:24:09;4.23;;;3.83;;
28481;SDS011;15703;49.588;6.260;2023-03-29T02:26:33;4.17;;;3.77;;
28481;SDS011;15703;49.588;6.260;2023-03-29T02:28:56;4.00;;;3.70;;
28481;SDS011;15703;49.588;6.260;2023-03-29T02:36:17;4.53;;;4.13;;
28481;SDS011;15703;49.588;6.260;2023-03-29T02:38:41;3.90;;;3.60;;
28481;SDS011;15703;49.588;6.260;2023-03-29T02:41:06;4.30;;;3.90;;
28481;SDS011;15703;49.588;6.260;2023-03-29T02:43:29;4.57;;;4.13;;
28481;SDS011;15703;49.588;6.260;2023-03-29T02:45:52;4.70;;;4.27;;
28481;SDS011;15703;49.588;6.260;2023-03-29T02:48:16;7.07;;;4.57;;
28481;SDS011;15703;49.588;6.260;2023-03-29T02:50:39;4.40;;;4.00;;
28481;SDS011;15703;49.588;6.260;2023-03-29T02:55:52;5.93;;;4.53;;
28481;SDS011;15703;49.588;6.260;2023-03-29T02:58:15;5.00;;;4.60;;
28481;SDS011;15703;49.588;6.260;2023-03-29T03:00:39;4.43;;;3.90;;
28481;SDS011;15703;49.588;6.260;2023-03-29T03:03:05;4.60;;;4.20;;
28481;SDS011;15703;49.588;6.260;2023-03-29T03:05:32;4.63;;;4.13;;
28481;SDS011;15703;49.588;6.260;2023-03-29T03:07:54;5.10;;;4.60;;
28481;SDS011;15703;49.588;6.260;2023-03-29T03:10:18;5.10;;;4.60;;
28481;SDS011;15703;49.588;6.260;2023-03-29T03:12:40;5.60;;;5.00;;
28481;SDS011;15703;49.588;6.260;2023-03-29T03:15:03;4.97;;;4.47;;
28481;SDS011;15703;49.588;6.260;2023-03-29T03:17:26;5.60;;;4.13;;
28481;SDS011;15703;49.588;6.260;2023-03-29T03:19:49;4.90;;;4.50;;
28481;SDS011;15703;49.588;6.260;2023-03-29T03:22:11;7.10;;;4.97;;
28481;SDS011;15703;49.588;6.260;2023-03-29T03:24:33;5.50;;;4.90;;
28481;SDS011;15703;49.588;6.260;2023-03-29T03:26:56;5.63;;;5.07;;
28481;SDS011;15703;49.588;6.260;2023-03-29T03:29:18;4.83;;;4.43;;
28481;SDS011;15703;49.588;6.260;2023-03-29T03:32:07;5.73;;;5.13;;
28481;SDS011;15703;49.588;6.260;2023-03-29T03:34:48;6.70;;;4.97;;
28481;SDS011;15703;49.588;6.260;2023-03-29T03:37:10;5.80;;;5.20;;
28481;SDS011;15703;49.588;6.260;2023-03-29T03:39:33;10.57;;;5.73;;
28481;SDS011;15703;49.588;6.260;2023-03-29T03:41:57;4.90;;;4.50;;
28481;SDS011;15703;49.588;6.260;2023-03-29T03:44:19;4.97;;;4.47;;
28481;SDS011;15703;49.588;6.260;2023-03-29T03:46:53;5.97;;;4.50;;
28481;SDS011;15703;49.588;6.260;2023-03-29T03:49:15;4.80;;;4.40;;
28481;SDS011;15703;49.588;6.260;2023-03-29T03:51:39;5.47;;;4.67;;
28481;SDS011;15703;49.588;6.260;2023-03-29T03:54:05;7.97;;;4.70;;
28481;SDS011;15703;49.588;6.260;2023-03-29T03:56:28;10.33;;;4.40;;
28481;SDS011;15703;49.588;6.260;2023-03-29T03:58:50;4.90;;;4.50;;
28481;SDS011;15703;49.588;6.260;2023-03-29T04:01:13;4.70;;;4.30;;
28481;SDS011;15703;49.588;6.260;2023-03-29T04:03:46;5.43;;;4.87;;
28481;SDS011;15703;49.588;6.260;2023-03-29T04:06:11;5.70;;;5.10;;
28481;SDS011;15703;49.588;6.260;2023-03-29T04:09:03;5.90;;;4.40;;
28481;SDS011;15703;49.588;6.260;2023-03-29T04:11:32;4.40;;;4.10;;
28481;SDS011;15703;49.588;6.260;2023-03-29T04:13:55;8.30;;;4.80;;
28481;SDS011;15703;49.588;6.260;2023-03-29T04:16:22;11.10;;;6.10;;
28481;SDS011;15703;49.588;6.260;2023-03-29T04:18:45;7.73;;;5.13;;
28481;SDS011;15703;49.588;6.260;2023-03-29T04:21:08;10.63;;;5.20;;
28481;SDS011;15703;49.588;6.260;2023-03-29T04:23:31;7.87;;;5.20;;
28481;SDS011;15703;49.588;6.260;2023-03-29T04:25:53;6.50;;;5.10;;
28481;SDS011;15703;49.588;6.260;2023-03-29T04:28:40;8.50;;;5.20;;
28481;SDS011;15703;49.588;6.260;2023-03-29T04:31:09;6.50;;;5.13;;
28481;SDS011;15703;49.588;6.260;2023-03-29T04:33:40;7.53;;;4.93;;
28481;SDS011;15703;49.588;6.260;2023-03-29T04:36:03;5.40;;;4.90;;
28481;SDS011;15703;49.588;6.260;2023-03-29T04:38:26;8.23;;;5.57;;
28481;SDS011;15703;49.588;6.260;2023-03-29T04:40:49;6.40;;;4.80;;
28481;SDS011;15703;49.588;6.260;2023-03-29T04:43:17;6.27;;;5.03;;
28481;SDS011;15703;49.588;6.260;2023-03-29T04:45:49;5.50;;;5.00;;
28481;SDS011;15703;49.588;6.260;2023-03-29T04:48:27;5.37;;;4.83;;
28481;SDS011;15703;49.588;6.260;2023-03-29T04:50:51;7.53;;;5.83;;
28481;SDS011;15703;49.588;6.260;2023-03-29T04:53:14;9.40;;;5.50;;
28481;SDS011;15703;49.588;6.260;2023-03-29T04:55:37;6.90;;;5.83;;
28481;SDS011;15703;49.588;6.260;2023-03-29T04:58:02;7.73;;;6.30;;
28481;SDS011;15703;49.588;6.260;2023-03-29T05:00:26;8.57;;;5.87;;
28481;SDS011;15703;49.588;6.260;2023-03-29T05:02:49;11.23;;;6.63;;
28481;SDS011;15703;49.588;6.260;2023-03-29T05:05:12;8.50;;;6.53;;
28481;SDS011;15703;49.588;6.260;2023-03-29T05:07:35;8.00;;;6.10;;
28481;SDS011;15703;49.588;6.260;2023-03-29T05:09:58;7.80;;;6.07;;
28481;SDS011;15703;49.588;6.260;2023-03-29T05:12:20;7.57;;;6.13;;
28481;SDS011;15703;49.588;6.260;2023-03-29T05:14:46;7.70;;;6.33;;
28481;SDS011;15703;49.588;6.260;2023-03-29T05:17:09;6.83;;;6.10;;
28481;SDS011;15703;49.588;6.260;2023-03-29T05:19:31;8.03;;;5.93;;
28481;SDS011;15703;49.588;6.260;2023-03-29T05:21:54;7.67;;;6.63;;
28481;SDS011;15703;49.588;6.260;2023-03-29T05:24:17;6.53;;;5.67;;
28481;SDS011;15703;49.588;6.260;2023-03-29T05:26:51;6.50;;;5.40;;
28481;SDS011;15703;49.588;6.260;2023-03-29T05:29:13;7.87;;;5.83;;
28481;SDS011;15703;49.588;6.260;2023-03-29T05:31:39;7.20;;;6.07;;
28481;SDS011;15703;49.588;6.260;2023-03-29T05:34:02;7.53;;;5.60;;
28481;SDS011;15703;49.588;6.260;2023-03-29T05:36:28;9.10;;;5.70;;
28481;SDS011;15703;49.588;6.260;2023-03-29T05:38:50;7.50;;;5.83;;
28481;SDS011;15703;49.588;6.260;2023-03-29T05:41:14;7.07;;;6.37;;
28481;SDS011;15703;49.588;6.260;2023-03-29T05:43:56;6.00;;;5.33;;
28481;SDS011;15703;49.588;6.260;2023-03-29T05:46:19;7.83;;;5.77;;
28481;SDS011;15703;49.588;6.260;2023-03-29T05:48:45;8.03;;;6.03;;
28481;SDS011;15703;49.588;6.260;2023-03-29T05:51:08;7.40;;;5.80;;
28481;SDS011;15703;49.588;6.260;2023-03-29T05:53:31;11.93;;;6.63;;
28481;SDS011;15703;49.588;6.260;2023-03-29T05:55:53;9.40;;;6.57;;
28481;SDS011;15703;49.588;6.260;2023-03-29T05:58:18;6.53;;;5.87;;
28481;SDS011;15703;49.588;6.260;2023-03-29T06:00:42;6.47;;;5.23;;
28481;SDS011;15703;49.588;6.260;2023-03-29T06:03:22;7.17;;;5.57;;
28481;SDS011;15703;49.588;6.260;2023-03-29T06:05:58;10.87;;;5.77;;
28481;SDS011;15703;49.588;6.260;2023-03-29T06:08:21;5.70;;;5.00;;
28481;SDS011;15703;49.588;6.260;2023-03-29T06:11:22;7.03;;;4.90;;
28481;SDS011;15703;49.588;6.260;2023-03-29T06:14:13;6.07;;;5.00;;
28481;SDS011;15703;49.588;6.260;2023-03-29T06:16:41;5.87;;;4.93;;
28481;SDS011;15703;49.588;6.260;2023-03-29T06:19:06;5.37;;;4.87;;
28481;SDS011;15703;49.588;6.260;2023-03-29T06:21:30;7.83;;;5.23;;
28481;SDS011;15703;49.588;6.260;2023-03-29T06:23:56;6.27;;;4.70;;
28481;SDS011;15703;49.588;6.260;2023-03-29T06:26:20;6.43;;;4.93;;
28481;SDS011;15703;49.588;6.260;2023-03-29T06:28:44;5.80;;;4.80;;
28481;SDS011;15703;49.588;6.260;2023-03-29T06:31:07;6.90;;;4.90;;
28481;SDS011;15703;49.588;6.260;2023-03-29T06:33:32;7.10;;;5.63;;
28481;SDS011;15703;49.588;6.260;2023-03-29T06:36:17;5.23;;;4.20;;
28481;SDS011;15703;49.588;6.260;2023-03-29T06:38:41;6.37;;;5.17;;
28481;SDS011;15703;49.588;6.260;2023-03-29T06:41:13;5.97;;;4.93;;
28481;SDS011;15703;49.588;6.260;2023-03-29T06:44:01;6.90;;;4.70;;
28481;SDS011;15703;49.588;6.260;2023-03-29T06:46:28;8.73;;;5.20;;
28481;SDS011;15703;49.588;6.260;2023-03-29T06:48:54;6.00;;;5.07;;
28481;SDS011;15703;49.588;6.260;2023-03-29T06:51:22;6.73;;;4.50;;
28481;SDS011;15703;49.588;6.260;2023-03-29T06:53:44;4.30;;;3.90;;
28481;SDS011;15703;49.588;6.260;2023-03-29T06:56:07;4.73;;;3.40;;
28481;SDS011;15703;49.588;6.260;2023-03-29T06:58:34;5.40;;;3.70;;
28481;SDS011;15703;49.588;6.260;2023-03-29T07:01:03;4.90;;;3.90;;
28481;SDS011;15703;49.588;6.260;2023-03-29T07:03:40;4.10;;;3.70;;
28481;SDS011;15703;49.588;6.260;2023-03-29T07:06:06;8.57;;;4.00;;
28481;SDS011;15703;49.588;6.260;2023-03-29T07:08:35;3.67;;;3.33;;
28481;SDS011;15703;49.588;6.260;2023-03-29T07:11:11;4.27;;;3.63;;
28481;SDS011;15703;49.588;6.260;2023-03-29T07:13:40;4.67;;;3.40;;
28481;SDS011;15703;49.588;6.260;2023-03-29T07:16:06;5.00;;;3.70;;
28481;SDS011;15703;49.588;6.260;2023-03-29T07:18:41;7.20;;;3.43;;
28481;SDS011;15703;49.588;6.260;2023-03-29T07:21:09;3.90;;;3.00;;
28481;SDS011;15703;49.588;6.260;2023-03-29T07:23:33;7.27;;;3.60;;
28481;SDS011;15703;49.588;6.260;2023-03-29T07:25:56;12.23;;;3.80;;
28481;SDS011;15703;49.588;6.260;2023-03-29T07:28:19;4.77;;;3.37;;
28481;SDS011;15703;49.588;6.260;2023-03-29T07:30:42;3.70;;;3.10;;
28481;SDS011;15703;49.588;6.260;2023-03-29T07:33:07;5.30;;;2.90;;
28481;SDS011;15703;49.588;6.260;2023-03-29T07:35:52;6.47;;;3.00;;
28481;SDS011;15703;49.588;6.260;2023-03-29T07:38:15;4.60;;;3.20;;
28481;SDS011;15703;49.588;6.260;2023-03-29T07:40:42;4.37;;;3.17;;
28481;SDS011;15703;49.588;6.260;2023-03-29T07:43:23;6.77;;;3.63;;
28481;SDS011;15703;49.588;6.260;2023-03-29T07:45:46;10.83;;;3.80;;
28481;SDS011;15703;49.588;6.260;2023-03-29T07:48:09;8.50;;;3.47;;
28481;SDS011;15703;49.588;6.260;2023-03-29T07:50:52;8.90;;;4.47;;
28481;SDS011;15703;49.588;6.260;2023-03-29T07:53:19;5.40;;;3.60;;
28481;SDS011;15703;49.588;6.260;2023-03-29T07:55:42;7.43;;;3.63;;
28481;SDS011;15703;49.588;6.260;2023-03-29T07:58:28;6.23;;;2.90;;
28481;SDS011;15703;49.588;6.260;2023-03-29T08:00:51;4.27;;;3.10;;
28481;SDS011;15703;49.588;6.260;2023-03-29T08:03:45;6.03;;;3.10;;
28481;SDS011;15703;49.588;6.260;2023-03-29T08:06:08;7.33;;;3.50;;
28481;SDS011;15703;49.588;6.260;2023-03-29T08:08:30;5.70;;;2.80;;
28481;SDS011;15703;49.588;6.260;2023-03-29T08:10:58;5.13;;;2.83;;
28481;SDS011;15703;49.588;6.260;2023-03-29T08:13:33;4.30;;;2.50;;
28481;SDS011;15703;49.588;6.260;2023-03-29T08:16:34;4.37;;;3.13;;
28481;SDS011;15703;49.588;6.260;2023-03-29T08:19:04;7.93;;;3.30;;
28481;SDS011;15703;49.588;6.260;2023-03-29T08:21:48;7.77;;;3.40;;
28481;SDS011;15703;49.588;6.260;2023-03-29T08:24:14;5.90;;;3.10;;
28481;SDS011;15703;49.588;6.260;2023-03-29T08:26:42;8.33;;;3.20;;
28481;SDS011;15703;49.588;6.260;2023-03-29T08:29:04;4.80;;;3.20;;
28481;SDS011;15703;49.588;6.260;2023-03-29T08:31:28;5.03;;;2.90;;
28481;SDS011;15703;49.588;6.260;2023-03-29T08:33:51;4.13;;;2.80;;
28481;SDS011;15703;49.588;6.260;2023-03-29T08:36:32;5.93;;;2.70;;
28481;SDS011;15703;49.588;6.260;2023-03-29T08:39:01;5.63;;;3.37;;
28481;SDS011;15703;49.588;6.260;2023-03-29T08:49:20;8.10;;;3.33;;
28481;SDS011;15703;49.588;6.260;2023-03-29T08:51:44;6.10;;;3.13;;
28481;SDS011;15703;49.588;6.260;2023-03-29T08:54:10;4.67;;;3.13;;
28481;SDS011;15703;49.588;6.260;2023-03-29T08:57:06;6.47;;;3.37;;
28481;SDS011;15703;49.588;6.260;2023-03-29T08:59:34;9.17;;;3.97;;
28481;SDS011;15703;49.588;6.260;2023-03-29T09:02:01;5.43;;;3.17;;
28481;SDS011;15703;49.588;6.260;2023-03-29T09:04:29;5.53;;;3.13;;
28481;SDS011;15703;49.588;6.260;2023-03-29T09:07:10;5.10;;;3.17;;
28481;SDS011;15703;49.588;6.260;2023-03-29T09:09:37;6.07;;;3.03;;
28481;SDS011;15703;49.588;6.260;2023-03-29T09:14:44;6.50;;;3.10;;
28481;SDS011;15703;49.588;6.260;2023-03-29T09:32:01;9.40;;;3.37;;
28481;SDS011;15703;49.588;6.260;2023-03-29T09:34:27;5.23;;;2.90;;
28481;SDS011;15703;49.588;6.260;2023-03-29T09:37:06;4.33;;;2.77;;
28481;SDS011;15703;49.588;6.260;2023-03-29T09:39:31;6.93;;;3.00;;
28481;SDS011;15703;49.588;6.260;2023-03-29T09:42:04;5.43;;;3.17;;
28481;SDS011;15703;49.588;6.260;2023-03-29T09:44:32;4.43;;;3.10;;
28481;SDS011;15703;49.588;6.260;2023-03-29T09:49:39;5.13;;;2.77;;
28481;SDS011;15703;49.588;6.260;2023-03-29T09:52:07;4.33;;;3.13;;
28481;SDS011;15703;49.588;6.260;2023-03-29T09:54:37;4.95;;;2.88;;
28481;SDS011;15703;49.588;6.260;2023-03-29T09:57:19;5.25;;;2.95;;
28481;SDS011;15703;49.588;6.260;2023-03-29T09:59:46;5.35;;;3.38;;
28481;SDS011;15703;49.588;6.260;2023-03-29T10:02:19;5.43;;;2.75;;
28481;SDS011;15703;49.588;6.260;2023-03-29T10:04:43;4.40;;;3.28;;
28481;SDS011;15703;49.588;6.260;2023-03-29T10:07:05;4.93;;;3.05;;
28481;SDS011;15703;49.588;6.260;2023-03-29T10:09:32;6.07;;;3.70;;
28481;SDS011;15703;49.588;6.260;2023-03-29T10:12:13;5.75;;;3.25;;
28481;SDS011;15703;49.588;6.260;2023-03-29T10:14:41;6.57;;;3.72;;
28481;SDS011;15703;49.588;6.260;2023-03-29T10:17:05;4.80;;;3.17;;
28481;SDS011;15703;49.588;6.260;2023-03-29T10:20:09;8.35;;;3.55;;
28481;SDS011;15703;49.588;6.260;2023-03-29T10:22:56;8.27;;;3.33;;
28481;SDS011;15703;49.588;6.260;2023-03-29T10:25:23;6.57;;;3.28;;
28481;SDS011;15703;49.588;6.260;2023-03-29T10:27:46;6.57;;;3.15;;
28481;SDS011;15703;49.588;6.260;2023-03-29T10:30:34;6.18;;;2.70;;
28481;SDS011;15703;49.588;6.260;2023-03-29T10:32:58;8.27;;;3.30;;
28481;SDS011;15703;49.588;6.260;2023-03-29T10:35:27;12.52;;;3.88;;
28481;SDS011;15703;49.588;6.260;2023-03-29T10:37:51;6.15;;;3.10;;
28481;SDS011;15703;49.588;6.260;2023-03-29T10:40:31;4.38;;;2.97;;
28481;SDS011;15703;49.588;6.260;2023-03-29T10:42:56;4.70;;;2.85;;
28481;SDS011;15703;49.588;6.260;2023-03-29T10:45:23;3.65;;;2.08;;
28481;SDS011;15703;49.588;6.260;2023-03-29T10:47:49;2.63;;;2.30;;
28481;SDS011;15703;49.588;6.260;2023-03-29T10:50:13;2.78;;;1.95;;
28481;SDS011;15703;49.588;6.260;2023-03-29T10:52:40;4.30;;;2.13;;
28481;SDS011;15703;49.588;6.260;2023-03-29T10:55:02;6.32;;;2.33;;
28481;SDS011;15703;49.588;6.260;2023-03-29T11:00:33;2.03;;;1.90;;
28481;SDS011;15703;49.588;6.260;2023-03-29T11:03:14;2.85;;;2.05;;
28481;SDS011;15703;49.588;6.260;2023-03-29T11:05:46;4.75;;;2.28;;
28481;SDS011;15703;49.588;6.260;2023-03-29T11:13:45;4.70;;;2.55;;
28481;SDS011;15703;49.588;6.260;2023-03-29T11:21:41;3.95;;;1.95;;
28481;SDS011;15703;49.588;6.260;2023-03-29T11:29:28;4.50;;;2.00;;
28481;SDS011;15703;49.588;6.260;2023-03-29T11:34:19;5.80;;;2.03;;
28481;SDS011;15703;49.588;6.260;2023-03-29T11:36:57;3.92;;;2.28;;
28481;SDS011;15703;49.588;6.260;2023-03-29T11:42:23;3.00;;;1.73;;
28481;SDS011;15703;49.588;6.260;2023-03-29T11:45:00;5.95;;;2.20;;
28481;SDS011;15703;49.588;6.260;2023-03-29T11:48:10;7.88;;;2.45;;
28481;SDS011;15703;49.588;6.260;2023-03-29T11:50:41;8.15;;;2.30;;
28481;SDS011;15703;49.588;6.260;2023-03-29T11:53:07;4.25;;;2.33;;
28481;SDS011;15703;49.588;6.260;2023-03-29T11:55:39;9.52;;;2.17;;
28481;SDS011;15703;49.588;6.260;2023-03-29T11:58:09;4.68;;;2.15;;
28481;SDS011;15703;49.588;6.260;2023-03-29T12:00:41;4.40;;;1.98;;
28481;SDS011;15703;49.588;6.260;2023-03-29T12:03:10;4.50;;;2.08;;
28481;SDS011;15703;49.588;6.260;2023-03-29T12:05:47;4.90;;;1.85;;
28481;SDS011;15703;49.588;6.260;2023-03-29T12:08:37;2.50;;;1.70;;
28481;SDS011;15703;49.588;6.260;2023-03-29T12:11:06;3.30;;;1.80;;
28481;SDS011;15703;49.588;6.260;2023-03-29T12:13:30;4.40;;;2.05;;
28481;SDS011;15703;49.588;6.260;2023-03-29T12:18:39;3.42;;;1.83;;
28481;SDS011;15703;49.588;6.260;2023-03-29T12:21:03;6.47;;;2.53;;
28481;SDS011;15703;49.588;6.260;2023-03-29T12:23:39;7.78;;;2.72;;
28481;SDS011;15703;49.588;6.260;2023-03-29T12:31:14;3.17;;;2.15;;
28481;SDS011;15703;49.588;6.260;2023-03-29T12:39:37;6.82;;;2.15;;
28481;SDS011;15703;49.588;6.260;2023-03-29T12:42:42;3.45;;;2.30;;
28481;SDS011;15703;49.588;6.260;2023-03-29T12:45:46;5.53;;;2.25;;
28481;SDS011;15703;49.588;6.260;2023-03-29T12:48:13;4.47;;;2.40;;
28481;SDS011;15703;49.588;6.260;2023-03-29T12:50:53;6.55;;;2.70;;
28481;SDS011;15703;49.588;6.260;2023-03-29T12:58:04;4.80;;;2.53;;
28481;SDS011;15703;49.588;6.260;2023-03-29T13:00:31;3.15;;;2.25;;
28481;SDS011;15703;49.588;6.260;2023-03-29T13:03:01;3.47;;;2.20;;
28481;SDS011;15703;49.588;6.260;2023-03-29T13:05:31;5.15;;;2.13;;
28481;SDS011;15703;49.588;6.260;2023-03-29T13:07:54;3.22;;;2.55;;
28481;SDS011;15703;49.588;6.260;2023-03-29T13:10:33;2.90;;;2.15;;
28481;SDS011;15703;49.588;6.260;2023-03-29T13:13:06;5.00;;;2.30;;
28481;SDS011;15703;49.588;6.260;2023-03-29T13:15:33;5.15;;;2.67;;
28481;SDS011;15703;49.588;6.260;2023-03-29T13:24:18;2.55;;;1.90;;
28481;SDS011;15703;49.588;6.260;2023-03-29T13:42:17;4.30;;;2.00;;
28481;SDS011;15703;49.588;6.260;2023-03-29T13:49:57;3.22;;;2.08;;
28481;SDS011;15703;49.588;6.260;2023-03-29T13:55:03;2.08;;;1.73;;
28481;SDS011;15703;49.588;6.260;2023-03-29T13:57:31;2.45;;;1.83;;
28481;SDS011;15703;49.588;6.260;2023-03-29T14:02:42;3.83;;;1.80;;
28481;SDS011;15703;49.588;6.260;2023-03-29T14:05:15;3.78;;;1.40;;
28481;SDS011;15703;49.588;6.260;2023-03-29T14:07:40;2.75;;;1.85;;
28481;SDS011;15703;49.588;6.260;2023-03-29T14:10:15;3.55;;;1.98;;
28481;SDS011;15703;49.588;6.260;2023-03-29T14:12:39;4.75;;;1.70;;
28481;SDS011;15703;49.588;6.260;2023-03-29T14:15:04;2.80;;;1.67;;
28481;SDS011;15703;49.588;6.260;2023-03-29T14:17:31;1.90;;;1.60;;
28481;SDS011;15703;49.588;6.260;2023-03-29T14:19:57;2.45;;;1.88;;
28481;SDS011;15703;49.588;6.260;2023-03-29T14:22:20;2.22;;;1.83;;
28481;SDS011;15703;49.588;6.260;2023-03-29T14:24:45;5.88;;;2.00;;
28481;SDS011;15703;49.588;6.260;2023-03-29T14:27:10;6.75;;;2.00;;
28481;SDS011;15703;49.588;6.260;2023-03-29T14:29:46;3.97;;;1.63;;
28481;SDS011;15703;49.588;6.260;2023-03-29T14:32:13;5.00;;;2.15;;
28481;SDS011;15703;49.588;6.260;2023-03-29T14:34:46;4.43;;;1.95;;
28481;SDS011;15703;49.588;6.260;2023-03-29T14:37:10;3.47;;;2.10;;
28481;SDS011;15703;49.588;6.260;2023-03-29T14:39:34;5.28;;;1.90;;
28481;SDS011;15703;49.588;6.260;2023-03-29T14:43:07;4.90;;;2.13;;
28481;SDS011;15703;49.588;6.260;2023-03-29T14:45:31;3.50;;;1.85;;
28481;SDS011;15703;49.588;6.260;2023-03-29T14:47:54;4.15;;;1.65;;
28481;SDS011;15703;49.588;6.260;2023-03-29T14:50:18;3.58;;;1.80;;
28481;SDS011;15703;49.588;6.260;2023-03-29T14:52:42;3.03;;;1.80;;
28481;SDS011;15703;49.588;6.260;2023-03-29T14:55:08;3.60;;;1.95;;
28481;SDS011;15703;49.588;6.260;2023-03-29T14:57:32;2.60;;;1.75;;
28481;SDS011;15703;49.588;6.260;2023-03-29T15:00:40;2.50;;;1.88;;
28481;SDS011;15703;49.588;6.260;2023-03-29T15:03:10;3.58;;;2.05;;
28481;SDS011;15703;49.588;6.260;2023-03-29T15:05:40;4.80;;;2.28;;
28481;SDS011;15703;49.588;6.260;2023-03-29T15:08:05;5.10;;;2.47;;
28481;SDS011;15703;49.588;6.260;2023-03-29T15:13:43;3.38;;;2.08;;
28481;SDS011;15703;49.588;6.260;2023-03-29T15:16:20;7.38;;;2.40;;
28481;SDS011;15703;49.588;6.260;2023-03-29T15:19:11;5.35;;;2.65;;
28481;SDS011;15703;49.588;6.260;2023-03-29T15:21:57;3.80;;;2.10;;
28481;SDS011;15703;49.588;6.260;2023-03-29T15:24:28;3.58;;;2.05;;
28481;SDS011;15703;49.588;6.260;2023-03-29T15:26:58;3.78;;;2.17;;
28481;SDS011;15703;49.588;6.260;2023-03-29T15:29:22;7.93;;;2.13;;
28481;SDS011;15703;49.588;6.260;2023-03-29T15:31:52;6.30;;;2.25;;
28481;SDS011;15703;49.588;6.260;2023-03-29T15:35:37;4.65;;;2.17;;
28481;SDS011;15703;49.588;6.260;2023-03-29T15:37:40;2.80;;;1.77;;
28481;SDS011;15703;49.588;6.260;2023-03-29T15:41:05;3.00;;;2.00;;
28481;SDS011;15703;49.588;6.260;2023-03-29T15:43:28;4.80;;;1.83;;
28481;SDS011;15703;49.588;6.260;2023-03-29T15:45:51;4.07;;;2.15;;
28481;SDS011;15703;49.588;6.260;2023-03-29T15:48:19;4.50;;;2.25;;
28481;SDS011;15703;49.588;6.260;2023-03-29T15:50:43;4.53;;;1.90;;
28481;SDS011;15703;49.588;6.260;2023-03-29T15:53:06;7.35;;;2.42;;
28481;SDS011;15703;49.588;6.260;2023-03-29T15:55:52;3.55;;;1.95;;
28481;SDS011;15703;49.588;6.260;2023-03-29T15:58:19;1.98;;;1.70;;
28481;SDS011;15703;49.588;6.260;2023-03-29T16:00:52;3.53;;;2.03;;
28481;SDS011;15703;49.588;6.260;2023-03-29T16:03:43;5.22;;;2.45;;
28481;SDS011;15703;49.588;6.260;2023-03-29T16:06:19;4.90;;;2.13;;
28481;SDS011;15703;49.588;6.260;2023-03-29T16:08:44;4.15;;;1.90;;
28481;SDS011;15703;49.588;6.260;2023-03-29T16:11:09;4.32;;;1.90;;
28481;SDS011;15703;49.588;6.260;2023-03-29T16:13:32;3.58;;;2.00;;
28481;SDS011;15703;49.588;6.260;2023-03-29T16:15:55;5.65;;;1.77;;
28481;SDS011;15703;49.588;6.260;2023-03-29T16:18:18;3.40;;;1.73;;
28481;SDS011;15703;49.588;6.260;2023-03-29T16:20:40;3.42;;;2.00;;
28481;SDS011;15703;49.588;6.260;2023-03-29T16:23:45;3.00;;;1.85;;
28481;SDS011;15703;49.588;6.260;2023-03-29T16:26:10;3.08;;;1.80;;
28481;SDS011;15703;49.588;6.260;2023-03-29T16:28:33;2.42;;;1.73;;
28481;SDS011;15703;49.588;6.260;2023-03-29T16:30:58;8.13;;;2.03;;
28481;SDS011;15703;49.588;6.260;2023-03-29T16:33:21;3.90;;;1.70;;
28481;SDS011;15703;49.588;6.260;2023-03-29T16:35:47;4.82;;;1.52;;
28481;SDS011;15703;49.588;6.260;2023-03-29T16:38:13;4.88;;;2.03;;
28481;SDS011;15703;49.588;6.260;2023-03-29T16:40:36;3.90;;;1.50;;
28481;SDS011;15703;49.588;6.260;2023-03-29T16:42:58;2.85;;;1.95;;
28481;SDS011;15703;49.588;6.260;2023-03-29T16:45:25;7.88;;;3.25;;
28481;SDS011;15703;49.588;6.260;2023-03-29T16:47:47;4.85;;;2.00;;
28481;SDS011;15703;49.588;6.260;2023-03-29T16:50:11;6.15;;;1.70;;
28481;SDS011;15703;49.588;6.260;2023-03-29T16:52:42;5.20;;;1.92;;
28481;SDS011;15703;49.588;6.260;2023-03-29T16:55:14;4.95;;;2.00;;
28481;SDS011;15703;49.588;6.260;2023-03-29T16:57:40;3.70;;;1.60;;
28481;SDS011;15703;49.588;6.260;2023-03-29T17:01:12;6.72;;;1.70;;
28481;SDS011;15703;49.588;6.260;2023-03-29T17:03:36;5.22;;;1.90;;
28481;SDS011;15703;49.588;6.260;2023-03-29T17:05:59;4.88;;;2.30;;